createdAt,value
2019-01-23T00:01:00.759Z,23.13
2019-01-23T00:03:30.368Z,22.13
2019-01-23T00:05:59.910Z,22.17
2019-01-23T00:08:29.360Z,21.37
2019-01-23T00:10:58.960Z,22.43
2019-01-23T00:13:28.515Z,20.53
2019-01-23T00:15:58.086Z,22.00
2019-01-23T00:18:27.614Z,23.07
2019-01-23T00:20:57.282Z,23.27
2019-01-23T00:23:26.820Z,22.77
2019-01-23T00:25:56.396Z,22.83
2019-01-23T00:28:25.888Z,21.97
2019-01-23T00:30:55.403Z,20.53
2019-01-23T00:33:24.878Z,21.17
2019-01-23T00:35:54.417Z,22.20
2019-01-23T00:38:23.922Z,22.37
2019-01-23T00:40:53.593Z,21.57
2019-01-23T00:43:23.149Z,20.47
2019-01-23T00:45:52.719Z,21.13
2019-01-23T00:48:22.180Z,22.33
2019-01-23T00:50:51.799Z,22.63
2019-01-23T00:53:21.287Z,21.17
2019-01-23T00:55:50.815Z,22.50
2019-01-23T00:58:20.321Z,19.70
2019-01-23T01:00:50.023Z,23.57
2019-01-23T01:03:19.585Z,20.33
2019-01-23T01:05:49.405Z,20.70
2019-01-23T01:08:19.127Z,20.67
2019-01-23T01:10:48.742Z,22.80
2019-01-23T01:13:18.227Z,22.17
2019-01-23T01:15:47.784Z,21.83
2019-01-23T01:18:17.242Z,22.40
2019-01-23T01:20:46.822Z,21.70
2019-01-23T01:23:16.409Z,22.00
2019-01-23T01:25:45.940Z,19.13
2019-01-23T01:28:15.501Z,22.37
2019-01-23T01:30:45.027Z,22.87
2019-01-23T01:33:14.554Z,23.87
2019-01-23T01:35:44.118Z,22.00
2019-01-23T01:38:13.772Z,22.90
2019-01-23T01:40:43.338Z,22.30
2019-01-23T01:43:12.866Z,21.53
2019-01-23T01:45:42.455Z,22.07
2019-01-23T01:48:12.025Z,22.33
2019-01-23T01:50:41.558Z,20.53
2019-01-23T01:53:11.190Z,21.60
2019-01-23T01:55:40.678Z,21.67
2019-01-23T01:58:10.392Z,21.23
2019-01-23T02:00:40.055Z,22.30
2019-01-23T02:03:09.627Z,21.80
2019-01-23T02:05:39.102Z,24.17
2019-01-23T02:08:08.556Z,22.87
2019-01-23T02:10:38.079Z,22.70
2019-01-23T02:13:07.708Z,23.43
2019-01-23T02:15:37.345Z,21.77
2019-01-23T02:18:06.967Z,23.37
2019-01-23T02:20:36.463Z,20.43
2019-01-23T02:23:05.913Z,21.73
2019-01-23T02:25:35.477Z,25.63
2019-01-23T02:28:05.157Z,22.93
2019-01-23T02:30:34.995Z,22.00
2019-01-23T02:33:04.548Z,23.87
2019-01-23T02:35:34.038Z,23.37
2019-01-23T02:38:03.731Z,24.90
2019-01-23T02:40:33.366Z,23.93
2019-01-23T02:43:02.845Z,23.33
2019-01-23T02:45:32.431Z,22.80
2019-01-23T02:48:01.908Z,22.90
2019-01-23T02:50:31.616Z,23.47
2019-01-23T02:53:01.172Z,23.00
2019-01-23T02:55:30.728Z,24.40
2019-01-23T02:58:00.308Z,22.10
2019-01-23T03:00:29.958Z,25.30
2019-01-23T03:02:59.598Z,24.67
2019-01-23T03:05:29.263Z,25.67
2019-01-23T03:07:58.819Z,24.43
2019-01-23T03:10:30.715Z,23.70
2019-01-23T03:13:00.274Z,23.60
2019-01-23T03:15:29.873Z,24.93
2019-01-23T03:17:59.494Z,21.37
2019-01-23T03:20:29.034Z,25.03
2019-01-23T03:22:58.525Z,21.83
2019-01-23T03:25:28.105Z,24.77
2019-01-23T03:27:57.728Z,25.53
2019-01-23T03:30:27.429Z,23.93
2019-01-23T03:32:56.929Z,23.30
2019-01-23T03:35:26.572Z,23.80
2019-01-23T03:37:56.068Z,25.47
2019-01-23T03:40:26.928Z,23.53
2019-01-23T03:42:56.412Z,25.70
2019-01-23T03:45:25.976Z,22.93
2019-01-23T03:47:55.516Z,24.47
2019-01-23T03:50:25.084Z,24.90
2019-01-23T03:52:54.660Z,22.27
2019-01-23T03:55:24.161Z,23.57
2019-01-23T03:57:53.704Z,22.67
2019-01-23T04:00:24.692Z,24.30
2019-01-23T04:02:54.613Z,21.63
2019-01-23T04:05:24.283Z,22.80
2019-01-23T04:07:53.912Z,22.30
2019-01-23T04:10:24.734Z,25.20
2019-01-23T04:12:54.398Z,20.53
2019-01-23T04:15:23.917Z,23.07
2019-01-23T04:17:53.538Z,22.27
2019-01-23T04:20:23.577Z,22.97
2019-01-23T04:22:53.137Z,21.20
2019-01-23T04:25:22.715Z,19.47
2019-01-23T04:27:52.263Z,22.30
2019-01-23T04:30:24.876Z,21.53
2019-01-23T04:32:54.801Z,22.00
2019-01-23T04:35:24.594Z,22.50
2019-01-23T04:37:54.109Z,21.67
2019-01-23T04:40:23.591Z,22.60
2019-01-23T04:42:53.069Z,22.17
2019-01-23T04:45:22.718Z,25.30
2019-01-23T04:47:52.279Z,22.70
2019-01-23T04:50:21.849Z,24.00
2019-01-23T04:53:10.685Z,22.73
2019-01-23T04:55:41.042Z,24.07
2019-01-23T04:58:10.590Z,23.43
2019-01-23T05:00:40.138Z,24.00
2019-01-23T05:03:09.787Z,23.87
2019-01-23T05:05:39.408Z,23.30
2019-01-23T05:08:08.906Z,21.97
2019-01-23T05:10:38.401Z,22.97
2019-01-23T05:13:07.998Z,24.10
2019-01-23T05:15:37.484Z,24.10
2019-01-23T05:18:07.000Z,21.27
2019-01-23T05:20:36.627Z,23.27
2019-01-23T05:23:06.222Z,22.83
2019-01-23T05:25:35.876Z,23.20
2019-01-23T05:28:05.720Z,23.43
2019-01-23T05:30:35.407Z,22.00
2019-01-23T05:33:04.948Z,22.97
2019-01-23T05:35:34.500Z,25.10
2019-01-23T05:38:15.971Z,23.03
2019-01-23T05:40:45.426Z,24.00
2019-01-23T05:43:15.193Z,25.70
2019-01-23T05:45:44.688Z,24.20
2019-01-23T05:48:14.168Z,24.03
2019-01-23T05:50:43.635Z,25.20
2019-01-23T05:53:13.321Z,23.43
2019-01-23T05:55:42.876Z,25.60
2019-01-23T05:58:12.378Z,25.27
2019-01-23T06:00:41.889Z,25.73
2019-01-23T06:03:11.451Z,24.33
2019-01-23T06:05:40.949Z,26.50
2019-01-23T06:08:10.447Z,27.60
2019-01-23T06:10:40.023Z,23.70
2019-01-23T06:13:09.511Z,24.73
2019-01-23T06:15:39.167Z,26.60
2019-01-23T06:18:08.697Z,29.13
2019-01-23T06:20:38.202Z,25.03
2019-01-23T06:23:07.711Z,24.57
2019-01-23T06:25:37.297Z,28.63
2019-01-23T06:28:07.095Z,27.17
2019-01-23T06:30:36.704Z,26.03
2019-01-23T06:33:06.345Z,27.63
2019-01-23T06:35:36.015Z,29.30
2019-01-23T06:38:05.586Z,30.23
2019-01-23T06:40:35.541Z,29.27
2019-01-23T06:43:05.105Z,29.50
2019-01-23T06:45:34.776Z,28.97
2019-01-23T06:48:04.626Z,28.20
2019-01-23T06:50:34.141Z,31.30
2019-01-23T06:53:03.724Z,33.00
2019-01-23T06:55:33.573Z,32.43
2019-01-23T06:58:03.247Z,34.10
2019-01-23T07:00:32.892Z,32.07
2019-01-23T07:03:02.497Z,31.93
2019-01-23T07:05:32.066Z,31.60
2019-01-23T07:08:01.602Z,34.03
2019-01-23T07:10:31.198Z,34.03
2019-01-23T07:13:00.704Z,31.37
2019-01-23T07:15:30.394Z,35.30
2019-01-23T07:17:59.906Z,33.30
2019-01-23T07:20:29.445Z,36.87
2019-01-23T07:22:58.985Z,36.50
2019-01-23T07:25:28.942Z,37.23
2019-01-23T07:27:58.611Z,40.33
2019-01-23T07:30:30.920Z,38.77
2019-01-23T07:33:00.440Z,34.23
2019-01-23T07:35:29.944Z,36.60
2019-01-23T07:37:59.445Z,38.13
2019-01-23T07:40:28.953Z,37.60
2019-01-23T07:42:58.523Z,37.37
2019-01-23T07:45:28.481Z,41.13
2019-01-23T07:47:57.973Z,40.60
2019-01-23T07:50:27.716Z,41.23
2019-01-23T07:52:57.407Z,38.20
2019-01-23T07:55:27.146Z,41.73
2019-01-23T07:57:56.905Z,41.97
2019-01-23T08:00:31.285Z,41.87
2019-01-23T08:02:58.567Z,41.03
2019-01-23T08:05:28.217Z,41.27
2019-01-23T08:07:57.713Z,42.97
2019-01-23T08:10:27.374Z,43.87
2019-01-23T08:12:57.033Z,46.77
2019-01-23T08:15:34.626Z,44.17
2019-01-23T08:18:05.517Z,44.77
2019-01-23T08:20:35.075Z,44.33
2019-01-23T08:23:04.903Z,45.23
2019-01-23T08:25:34.920Z,46.53
2019-01-23T08:28:05.078Z,47.20
2019-01-23T08:30:38.868Z,46.07
2019-01-23T08:33:06.235Z,47.73
2019-01-23T08:35:35.721Z,46.90
2019-01-23T08:38:05.461Z,48.57
2019-01-23T08:40:34.994Z,49.17
2019-01-23T08:43:05.834Z,50.43
2019-01-23T08:45:35.682Z,50.67
2019-01-23T08:48:05.445Z,49.53
2019-01-23T08:50:41.200Z,50.23
2019-01-23T08:53:10.828Z,55.57
2019-01-23T08:55:40.397Z,50.73
2019-01-23T08:58:10.044Z,50.43
2019-01-23T09:00:45.844Z,52.73
2019-01-23T09:03:10.782Z,54.57
2019-01-23T09:05:40.278Z,51.73
2019-01-23T09:08:10.196Z,54.77
2019-01-23T09:10:39.920Z,53.07
2019-01-23T09:13:09.589Z,51.97
2019-01-23T09:15:39.121Z,54.63
2019-01-23T09:18:08.781Z,55.93
2019-01-23T09:20:38.342Z,54.20
2019-01-23T09:23:08.071Z,54.40
2019-01-23T09:25:37.717Z,52.83
2019-01-23T09:28:07.224Z,58.33
2019-01-23T09:30:40.381Z,54.73
2019-01-23T09:33:51.061Z,53.47
2019-01-23T09:37:03.187Z,57.87
2019-01-23T09:39:56.491Z,55.17
2019-01-23T09:43:14.239Z,55.70
2019-01-23T09:46:11.975Z,58.10
2019-01-23T09:48:54.041Z,53.07
2019-01-23T09:51:50.001Z,60.43
2019-01-23T09:54:19.551Z,52.83
2019-01-23T09:56:49.930Z,51.77
2019-01-23T09:59:19.442Z,55.20
2019-01-23T10:01:48.909Z,56.03
2019-01-23T10:04:18.500Z,53.73
2019-01-23T10:06:47.981Z,52.80
2019-01-23T10:09:17.493Z,56.83
2019-01-23T10:11:46.969Z,53.30
2019-01-23T10:14:16.631Z,52.80
2019-01-23T10:16:46.124Z,55.60
2019-01-23T10:19:15.678Z,51.70
2019-01-23T10:21:45.297Z,56.23
2019-01-23T10:24:14.931Z,51.50
2019-01-23T10:26:44.564Z,54.43
2019-01-23T10:29:14.080Z,52.53
2019-01-23T10:31:43.732Z,50.57
2019-01-23T10:34:13.362Z,55.70
2019-01-23T10:36:42.982Z,51.20
2019-01-23T10:39:12.651Z,49.97
2019-01-23T10:41:42.259Z,50.53
2019-01-23T10:44:11.875Z,50.00
2019-01-23T10:46:41.840Z,56.43
2019-01-23T10:49:11.347Z,52.37
2019-01-23T10:51:40.918Z,48.57
2019-01-23T10:54:10.453Z,48.13
2019-01-23T10:56:40.156Z,48.47
2019-01-23T10:59:09.855Z,45.93
2019-01-23T11:01:39.561Z,49.47
2019-01-23T11:04:09.293Z,45.97
2019-01-23T11:06:38.941Z,48.37
2019-01-23T11:09:09.074Z,50.07
2019-01-23T11:11:38.649Z,47.37
2019-01-23T11:14:08.177Z,48.30
2019-01-23T11:16:37.897Z,49.57
2019-01-23T11:19:07.498Z,47.60
2019-01-23T11:21:37.119Z,49.17
2019-01-23T11:24:06.665Z,48.50
2019-01-23T11:26:36.225Z,48.40
2019-01-23T11:29:05.805Z,50.37
2019-01-23T11:31:35.385Z,51.57
2019-01-23T11:34:04.985Z,49.57
2019-01-23T11:36:34.561Z,51.53
2019-01-23T11:39:06.447Z,48.10
2019-01-23T11:41:36.031Z,49.77
2019-01-23T11:44:05.657Z,49.30
2019-01-23T11:46:35.231Z,48.17
2019-01-23T11:49:04.991Z,49.03
2019-01-23T11:51:34.614Z,48.50
2019-01-23T11:54:04.501Z,52.07
2019-01-23T11:56:34.081Z,46.73
2019-01-23T11:59:03.639Z,47.50
2019-01-23T12:01:33.144Z,44.57
2019-01-23T12:04:02.750Z,48.87
2019-01-23T12:06:32.349Z,47.70
2019-01-23T12:09:01.943Z,48.97
2019-01-23T12:11:31.533Z,46.63
2019-01-23T12:14:01.065Z,48.57
2019-01-23T12:16:30.606Z,48.77
2019-01-23T12:19:00.231Z,46.33
2019-01-23T12:21:29.802Z,43.83
2019-01-23T12:23:59.488Z,44.40
2019-01-23T12:26:29.012Z,46.93
2019-01-23T12:28:58.503Z,45.43
2019-01-23T12:31:34.665Z,44.37
2019-01-23T12:33:59.252Z,47.53
2019-01-23T12:36:28.919Z,45.57
2019-01-23T12:38:58.472Z,42.87
2019-01-23T12:41:28.004Z,43.40
2019-01-23T12:43:57.670Z,43.63
2019-01-23T12:46:27.327Z,43.67
2019-01-23T12:48:56.924Z,39.80
2019-01-23T12:51:26.595Z,39.40
2019-01-23T12:53:56.127Z,45.37
2019-01-23T12:56:25.706Z,43.27
2019-01-23T12:58:55.255Z,43.33
2019-01-23T13:01:24.965Z,42.43
2019-01-23T13:03:54.474Z,41.93
2019-01-23T13:06:24.151Z,42.30
2019-01-23T13:08:53.724Z,38.33
2019-01-23T13:11:23.371Z,38.40
2019-01-23T13:13:52.940Z,40.07
2019-01-23T13:16:22.583Z,40.63
2019-01-23T13:18:52.129Z,37.87
2019-01-23T13:21:22.035Z,35.83
2019-01-23T13:23:53.152Z,36.03
2019-01-23T13:26:22.928Z,34.90
2019-01-23T13:28:52.444Z,35.07
2019-01-23T13:31:21.938Z,34.60
2019-01-23T13:33:52.365Z,32.70
2019-01-23T13:36:22.067Z,35.87
2019-01-23T13:38:51.553Z,32.97
2019-01-23T13:41:21.205Z,35.27
2019-01-23T13:43:50.756Z,30.50
2019-01-23T13:46:20.313Z,30.17
2019-01-23T13:48:49.840Z,30.93
2019-01-23T13:51:19.410Z,32.57
2019-01-23T13:53:49.059Z,31.83
2019-01-23T13:56:18.575Z,31.60
2019-01-23T13:58:48.200Z,29.73
2019-01-23T14:01:17.866Z,30.60
2019-01-23T14:03:47.514Z,31.37
2019-01-23T14:06:17.184Z,30.17
2019-01-23T14:08:46.782Z,29.87
2019-01-23T14:11:16.595Z,27.50
2019-01-23T14:13:46.141Z,28.73
2019-01-23T14:16:15.875Z,29.23
2019-01-23T14:18:45.347Z,30.67
2019-01-23T14:21:15.022Z,29.50
2019-01-23T14:23:44.536Z,29.30
2019-01-23T14:26:15.148Z,29.03
2019-01-23T14:28:44.678Z,27.53
2019-01-23T14:31:14.451Z,26.70
2019-01-23T14:33:44.050Z,24.77
2019-01-23T14:36:13.658Z,28.13
2019-01-23T14:38:43.191Z,25.77
2019-01-23T14:41:12.813Z,26.33
2019-01-23T14:43:42.342Z,24.80
2019-01-23T14:46:11.993Z,24.07
2019-01-23T14:48:41.662Z,22.40
2019-01-23T14:51:11.427Z,23.33
2019-01-23T14:53:41.058Z,23.43
2019-01-23T14:56:10.616Z,24.30
2019-01-23T14:58:40.275Z,24.87
2019-01-23T15:01:09.829Z,24.30
2019-01-23T15:03:39.437Z,25.37
2019-01-23T15:06:08.953Z,23.67
2019-01-23T15:08:38.481Z,21.30
2019-01-23T15:11:08.065Z,22.33
2019-01-23T15:13:37.709Z,22.33
2019-01-23T15:16:07.244Z,23.30
2019-01-23T15:18:36.719Z,21.97
2019-01-23T15:21:06.312Z,21.23
2019-01-23T15:23:35.866Z,20.73
2019-01-23T15:26:05.433Z,21.20
2019-01-23T15:28:35.047Z,20.57
2019-01-23T15:31:04.687Z,18.73
2019-01-23T15:33:34.189Z,18.90
2019-01-23T15:36:04.000Z,17.03
2019-01-23T15:38:33.512Z,18.10
2019-01-23T15:41:03.028Z,19.10
2019-01-23T15:43:32.630Z,17.30
2019-01-23T15:46:02.226Z,18.37
2019-01-23T15:48:31.792Z,16.93
2019-01-23T15:51:01.276Z,16.97
2019-01-23T15:53:30.770Z,16.37
2019-01-23T15:56:00.418Z,16.73
2019-01-23T15:58:30.038Z,16.80
2019-01-23T16:00:59.602Z,16.63
2019-01-23T16:03:29.215Z,15.80
2019-01-23T16:05:58.881Z,17.83
2019-01-23T16:08:28.451Z,18.33
2019-01-23T16:10:58.130Z,14.50
2019-01-23T16:13:27.805Z,16.30
2019-01-23T16:15:57.382Z,14.97
2019-01-23T16:18:27.040Z,14.60
2019-01-23T16:20:56.561Z,13.93
2019-01-23T16:23:27.529Z,16.50
2019-01-23T16:25:57.463Z,15.63
2019-01-23T16:28:26.987Z,14.10
2019-01-23T16:30:56.543Z,15.17
2019-01-23T16:33:26.045Z,16.00
2019-01-23T16:35:55.599Z,14.73
2019-01-23T16:38:25.309Z,14.93
2019-01-23T16:40:54.919Z,16.00
2019-01-23T16:43:24.573Z,15.03
2019-01-23T16:45:54.217Z,15.00
2019-01-23T16:48:23.861Z,15.83
2019-01-23T16:50:53.431Z,14.97
2019-01-23T16:53:23.201Z,15.00
2019-01-23T16:55:52.667Z,16.20
2019-01-23T16:58:22.341Z,17.40
2019-01-23T17:00:52.013Z,16.67
2019-01-23T17:03:21.753Z,14.23
2019-01-23T17:05:51.348Z,14.47
2019-01-23T17:08:20.937Z,14.23
2019-01-23T17:10:50.535Z,14.20
2019-01-23T17:13:20.038Z,14.77
2019-01-23T17:15:49.554Z,14.10
2019-01-23T17:18:19.332Z,16.57
2019-01-23T17:20:49.471Z,15.53
2019-01-23T17:23:19.123Z,15.40
2019-01-23T17:25:48.585Z,15.07
2019-01-23T17:28:18.650Z,15.33
2019-01-23T17:30:48.329Z,14.60
2019-01-23T17:33:17.861Z,15.47
2019-01-23T17:35:47.442Z,15.93
2019-01-23T17:38:17.052Z,15.70
2019-01-23T17:40:46.619Z,15.70
2019-01-23T17:43:16.657Z,15.80
2019-01-23T17:45:46.216Z,14.90
2019-01-23T17:48:15.798Z,16.27
2019-01-23T17:50:45.330Z,14.87
2019-01-23T17:53:15.044Z,14.37
2019-01-23T17:55:44.560Z,15.87
2019-01-23T17:58:15.150Z,16.67
2019-01-23T18:00:55.356Z,14.77
2019-01-23T18:03:25.277Z,16.80
2019-01-23T18:05:54.901Z,15.90
2019-01-23T18:08:24.544Z,16.37
2019-01-23T18:10:54.142Z,15.77
2019-01-23T18:13:23.954Z,15.27
2019-01-23T18:15:54.357Z,15.90
2019-01-23T18:18:23.857Z,14.70
2019-01-23T18:20:53.458Z,16.43
2019-01-23T18:23:23.011Z,15.83
2019-01-23T18:25:52.720Z,14.83
2019-01-23T18:28:22.341Z,15.73
2019-01-23T18:30:56.303Z,16.10
2019-01-23T18:33:32.330Z,15.67
2019-01-23T18:36:34.795Z,16.20
2019-01-23T18:39:30.245Z,14.40
2019-01-23T18:42:07.086Z,16.10
2019-01-23T18:45:24.054Z,15.50
2019-01-23T18:48:33.175Z,15.30
2019-01-23T18:51:10.121Z,14.67
2019-01-23T18:53:39.698Z,16.17
2019-01-23T18:56:09.302Z,15.87
2019-01-23T18:58:38.876Z,15.63
2019-01-23T19:01:08.503Z,15.13
2019-01-23T19:03:38.036Z,15.67
2019-01-23T19:06:07.700Z,15.17
2019-01-23T19:08:37.312Z,17.03
2019-01-23T19:11:07.471Z,15.97
2019-01-23T19:13:36.978Z,15.87
2019-01-23T19:16:07.122Z,15.60
2019-01-23T19:18:36.764Z,17.60
2019-01-23T19:21:07.038Z,16.97
2019-01-23T19:23:36.665Z,17.63
2019-01-23T19:26:06.688Z,16.10
2019-01-23T19:28:37.888Z,16.07
2019-01-23T19:31:07.504Z,15.30
2019-01-23T19:33:37.086Z,16.03
2019-01-23T19:36:06.851Z,16.30
2019-01-23T19:38:36.395Z,15.10
2019-01-23T19:41:05.941Z,15.97
2019-01-23T19:43:35.619Z,16.03
2019-01-23T19:46:05.292Z,15.93
2019-01-23T19:48:34.893Z,15.27
2019-01-23T19:51:04.619Z,16.93
2019-01-23T19:53:34.113Z,15.60
2019-01-23T19:56:03.617Z,16.83
2019-01-23T19:58:33.263Z,17.10
2019-01-23T20:01:02.937Z,15.97
2019-01-23T20:03:32.529Z,16.43
2019-01-23T20:06:02.188Z,16.60
2019-01-23T20:08:31.813Z,17.80
2019-01-23T20:11:01.444Z,16.40
2019-01-23T20:13:30.971Z,17.77
2019-01-23T20:16:00.537Z,17.93
2019-01-23T20:18:30.061Z,18.13
2019-01-23T20:20:59.767Z,17.63
2019-01-23T20:23:29.333Z,16.67
2019-01-23T20:25:58.851Z,16.17
2019-01-23T20:28:28.541Z,16.87
2019-01-23T20:30:58.155Z,16.50
2019-01-23T20:33:28.445Z,18.07
2019-01-23T20:35:58.151Z,16.57
2019-01-23T20:38:27.733Z,16.87
2019-01-23T20:40:57.271Z,17.40
2019-01-23T20:43:27.147Z,16.20
2019-01-23T20:45:56.711Z,16.97
2019-01-23T20:48:26.289Z,17.63
2019-01-23T20:50:55.775Z,17.20
2019-01-23T20:53:25.503Z,17.10
2019-01-23T20:55:55.046Z,17.10
2019-01-23T20:58:24.612Z,15.63
2019-01-23T21:00:54.227Z,18.17
2019-01-23T21:03:23.881Z,17.07
2019-01-23T21:05:53.526Z,16.60
2019-01-23T21:08:23.028Z,16.53
2019-01-23T21:10:52.546Z,17.00
2019-01-23T21:13:22.142Z,18.07
2019-01-23T21:15:51.767Z,16.50
2019-01-23T21:18:21.341Z,17.13
2019-01-23T21:20:50.924Z,17.03
2019-01-23T21:23:20.412Z,17.17
2019-01-23T21:25:49.928Z,16.63
2019-01-23T21:28:19.427Z,16.80
2019-01-23T21:30:49.002Z,15.43
2019-01-23T21:33:18.528Z,17.27
2019-01-23T21:35:48.056Z,16.93
2019-01-23T21:38:17.623Z,16.23
2019-01-23T21:40:47.182Z,17.27
2019-01-23T21:43:16.759Z,17.77
2019-01-23T21:45:46.465Z,16.77
2019-01-23T21:48:16.018Z,16.63
2019-01-23T21:50:45.573Z,17.97
2019-01-23T21:53:15.304Z,16.53
2019-01-23T21:55:44.902Z,16.97
2019-01-23T21:58:14.554Z,15.73
2019-01-23T22:00:46.436Z,16.47
2019-01-23T22:03:16.193Z,15.47
2019-01-23T22:05:45.785Z,16.40
2019-01-23T22:08:15.375Z,16.07
2019-01-23T22:10:45.035Z,15.30
2019-01-23T22:13:14.561Z,16.67
2019-01-23T22:15:44.138Z,14.80
2019-01-23T22:18:13.973Z,15.00
2019-01-23T22:20:43.471Z,14.53
2019-01-23T22:23:13.035Z,16.47
2019-01-23T22:25:42.615Z,16.70
2019-01-23T22:28:12.160Z,15.20
2019-01-23T22:30:43.833Z,15.57
2019-01-23T22:33:13.659Z,15.63
2019-01-23T22:35:43.139Z,15.73
2019-01-23T22:38:12.654Z,15.43
2019-01-23T22:40:42.256Z,16.03
2019-01-23T22:43:15.158Z,16.30
2019-01-23T22:45:43.030Z,15.60
2019-01-23T22:48:12.514Z,16.40
2019-01-23T22:50:42.014Z,17.37
2019-01-23T22:53:11.521Z,17.97
2019-01-23T22:55:41.172Z,16.23
2019-01-23T23:00:57.240Z,17.00
2019-01-23T23:03:26.884Z,16.00
2019-01-23T23:05:56.380Z,18.47
2019-01-23T23:08:25.890Z,17.57
2019-01-23T23:10:55.294Z,17.47
2019-01-23T23:13:24.786Z,17.83
2019-01-23T23:15:54.287Z,17.67
2019-01-23T23:18:23.790Z,16.33
2019-01-23T23:20:53.255Z,18.93
2019-01-23T23:23:22.754Z,17.43
2019-01-23T23:25:52.210Z,16.93
2019-01-23T23:28:25.951Z,18.00
2019-01-23T23:30:52.973Z,18.27
2019-01-23T23:33:22.495Z,16.47
2019-01-23T23:35:51.929Z,16.73
2019-01-23T23:38:21.417Z,19.00
2019-01-23T23:40:50.870Z,16.53
2019-01-23T23:43:20.283Z,16.47
2019-01-23T23:45:49.708Z,17.10
2019-01-23T23:48:19.132Z,18.53
2019-01-23T23:50:48.521Z,17.13
2019-01-23T23:53:18.140Z,16.93
2019-01-23T23:55:47.544Z,17.87
2019-01-23T23:58:16.979Z,16.70
